createdAt,value
2019-01-23T00:01:13.772Z,59.30
2019-01-23T00:04:08.264Z,59.70
2019-01-23T00:07:02.539Z,59.70
2019-01-23T00:09:56.927Z,59.70
2019-01-23T00:12:50.873Z,59.70
2019-01-23T00:15:45.646Z,59.80
2019-01-23T00:18:40.104Z,59.90
2019-01-23T00:21:37.038Z,60.00
2019-01-23T00:24:31.719Z,60.30
2019-01-23T00:27:25.842Z,60.10
2019-01-23T00:30:20.352Z,60.10
2019-01-23T00:33:15.864Z,60.10
2019-01-23T00:36:10.695Z,60.10
2019-01-23T00:39:05.765Z,60.10
2019-01-23T00:41:59.851Z,60.20
2019-01-23T00:44:54.141Z,60.30
2019-01-23T00:47:48.672Z,60.30
2019-01-23T00:50:46.117Z,60.30
2019-01-23T00:53:40.771Z,60.60
2019-01-23T00:56:35.264Z,60.40
2019-01-23T00:59:29.678Z,60.30
2019-01-23T01:02:24.021Z,60.40
2019-01-23T01:05:20.890Z,60.50
2019-01-23T01:08:15.245Z,60.50
2019-01-23T01:11:09.453Z,60.60
2019-01-23T01:14:04.055Z,60.50
2019-01-23T01:16:58.399Z,60.70
2019-01-23T01:19:52.890Z,60.50
2019-01-23T01:22:47.313Z,60.80
2019-01-23T01:25:43.055Z,61.30
2019-01-23T01:28:37.991Z,61.40
2019-01-23T01:31:33.230Z,61.50
2019-01-23T01:34:27.462Z,61.80
2019-01-23T01:37:21.926Z,62.10
2019-01-23T01:40:17.453Z,62.50
2019-01-23T01:43:11.614Z,63.10
2019-01-23T01:46:06.027Z,63.50
2019-01-23T01:49:03.098Z,64.30
2019-01-23T01:51:57.239Z,63.60
2019-01-23T01:54:51.970Z,63.60
2019-01-23T01:57:46.484Z,63.40
2019-01-23T02:00:42.196Z,63.20
2019-01-23T02:03:36.435Z,63.40
2019-01-23T02:06:31.150Z,63.50
2019-01-23T02:09:25.321Z,63.00
2019-01-23T02:12:19.487Z,62.60
2019-01-23T02:15:14.774Z,62.70
2019-01-23T02:18:09.543Z,63.10
2019-01-23T02:21:04.152Z,63.30
2019-01-23T02:23:59.779Z,63.60
2019-01-23T02:26:54.791Z,63.60
2019-01-23T02:29:48.957Z,63.60
2019-01-23T02:32:44.848Z,63.40
2019-01-23T02:35:39.623Z,63.20
2019-01-23T02:38:34.176Z,62.90
2019-01-23T02:41:28.485Z,62.70
2019-01-23T02:44:23.250Z,62.70
2019-01-23T02:47:17.388Z,62.90
2019-01-23T02:50:11.924Z,62.10
2019-01-23T02:53:06.032Z,62.10
2019-01-23T02:56:00.717Z,62.90
2019-01-23T02:58:55.074Z,62.80
2019-01-23T03:01:49.410Z,62.70
2019-01-23T03:04:44.135Z,62.50
2019-01-23T03:07:39.249Z,62.60
2019-01-23T03:10:34.045Z,62.40
2019-01-23T03:13:28.836Z,61.80
2019-01-23T03:16:23.612Z,62.30
2019-01-23T03:19:18.948Z,61.80
2019-01-23T03:22:14.318Z,61.90
2019-01-23T03:25:12.076Z,61.80
2019-01-23T03:28:06.390Z,62.00
2019-01-23T03:31:01.230Z,61.40
2019-01-23T03:33:57.147Z,61.40
2019-01-23T03:36:52.095Z,61.60
2019-01-23T03:39:46.894Z,61.00
2019-01-23T03:42:41.865Z,60.90
2019-01-23T03:45:37.127Z,60.80
2019-01-23T03:48:38.981Z,60.60
2019-01-23T03:51:36.190Z,60.60
2019-01-23T03:54:30.973Z,60.50
2019-01-23T03:57:25.435Z,60.60
2019-01-23T04:00:22.325Z,60.40
2019-01-23T04:03:18.205Z,60.40
2019-01-23T05:03:49.093Z,66.50
2019-01-23T05:06:46.734Z,64.80
2019-01-23T05:09:41.888Z,64.10
2019-01-23T05:12:37.892Z,63.80
2019-01-23T05:15:45.712Z,63.10
2019-01-23T05:18:43.441Z,63.10
2019-01-23T05:21:41.723Z,62.20
2019-01-23T05:24:36.905Z,62.00
2019-01-23T05:27:32.014Z,62.00
2019-01-23T05:30:30.772Z,61.80
2019-01-23T05:33:27.389Z,61.90
2019-01-23T05:36:23.735Z,61.80
2019-01-23T05:39:23.521Z,62.10
2019-01-23T05:42:24.226Z,61.80
2019-01-23T05:45:29.675Z,62.40
2019-01-23T05:48:30.094Z,61.20
2019-01-23T05:51:34.933Z,61.00
2019-01-23T05:54:56.033Z,61.20
2019-01-23T05:57:59.412Z,61.50
2019-01-23T06:04:35.586Z,62.10
2019-01-23T06:07:46.470Z,60.20
2019-01-23T06:11:07.240Z,60.60
2019-01-23T06:14:08.674Z,61.00
2019-01-23T06:17:11.422Z,60.10
2019-01-23T06:20:14.504Z,59.70
2019-01-23T06:23:10.667Z,59.70
2019-01-23T06:26:05.962Z,59.40
2019-01-23T06:29:03.353Z,60.00
2019-01-23T06:32:17.163Z,59.60
2019-01-23T06:35:23.887Z,59.80
2019-01-23T06:38:20.390Z,60.00
2019-01-23T06:41:14.852Z,60.20
2019-01-23T06:44:17.197Z,60.10
2019-01-23T06:47:14.549Z,59.20
2019-01-23T06:50:29.578Z,58.90
2019-01-23T06:53:35.062Z,59.30
2019-01-23T06:56:41.226Z,59.90
2019-01-23T06:59:38.029Z,59.00
2019-01-23T07:03:09.627Z,58.90
2019-01-23T07:06:11.617Z,58.80
2019-01-23T07:09:12.192Z,59.10
2019-01-23T07:12:12.305Z,58.60
2019-01-23T07:20:05.219Z,58.40
2019-01-23T07:26:27.215Z,58.10
2019-01-23T07:33:25.471Z,57.90
2019-01-23T07:36:47.543Z,57.70
2019-01-23T07:39:48.577Z,57.60
2019-01-23T07:42:45.554Z,57.90
2019-01-23T07:45:42.623Z,57.80
2019-01-23T07:48:40.379Z,57.90
2019-01-23T07:51:39.555Z,57.20
2019-01-23T07:54:42.517Z,58.10
2019-01-23T07:57:40.896Z,57.40
2019-01-23T08:00:48.482Z,58.60
2019-01-23T08:03:47.561Z,58.10
2019-01-23T08:06:42.368Z,57.10
2019-01-23T08:09:45.019Z,57.30
2019-01-23T08:12:57.924Z,57.90
2019-01-23T08:16:17.254Z,57.20
2019-01-23T08:19:39.079Z,56.40
2019-01-23T08:22:33.524Z,56.40
2019-01-23T08:26:26.095Z,56.40
2019-01-23T08:29:16.408Z,55.50
2019-01-23T08:32:15.464Z,56.30
2019-01-23T08:35:12.224Z,55.20
2019-01-23T08:38:22.592Z,55.20
2019-01-23T08:41:36.733Z,54.60
2019-01-23T08:44:35.586Z,55.00
2019-01-23T08:47:42.784Z,54.90
2019-01-23T08:50:42.537Z,54.50
2019-01-23T08:53:43.242Z,55.10
2019-01-23T08:56:38.957Z,53.90
2019-01-23T08:59:38.924Z,54.40
2019-01-23T09:03:10.208Z,55.60
2019-01-23T09:06:04.586Z,53.80
2019-01-23T09:09:01.137Z,54.40
2019-01-23T09:12:21.981Z,54.00
2019-01-23T09:25:22.339Z,54.20
2019-01-23T09:28:19.223Z,53.40
2019-01-23T09:31:48.160Z,53.50
2019-01-23T09:35:53.840Z,55.00
2019-01-23T09:39:23.009Z,54.30
2019-01-23T09:50:51.725Z,53.40
2019-01-23T09:54:18.023Z,54.50
2019-01-23T09:57:28.715Z,54.80
2019-01-23T10:01:01.909Z,54.30
2019-01-23T10:08:33.485Z,55.00
2019-01-23T10:15:10.441Z,53.30
2019-01-23T10:19:01.019Z,53.50
2019-01-23T10:22:11.394Z,54.10
2019-01-23T10:26:05.870Z,53.80
2019-01-23T10:32:11.837Z,54.30
2019-01-23T10:35:14.685Z,53.90
2019-01-23T10:38:13.561Z,55.00
2019-01-23T10:41:12.136Z,54.10
2019-01-23T10:44:09.972Z,54.80
2019-01-23T10:47:05.597Z,55.40
2019-01-23T10:50:03.037Z,55.50
2019-01-23T10:52:58.091Z,54.40
2019-01-23T10:55:53.347Z,54.90
2019-01-23T11:07:08.307Z,55.10
2019-01-23T11:10:16.432Z,55.40
2019-01-23T11:16:28.270Z,54.50
2019-01-23T11:19:37.856Z,54.80
2019-01-23T11:22:36.823Z,54.50
2019-01-23T11:25:35.597Z,54.60
2019-01-23T11:28:30.989Z,54.70
2019-01-23T11:32:16.264Z,54.60
2019-01-23T11:35:50.136Z,54.50
2019-01-23T11:38:54.431Z,54.40
2019-01-23T11:41:51.491Z,54.30
2019-01-23T11:44:52.029Z,54.00
2019-01-23T11:47:48.392Z,54.40
2019-01-23T11:51:47.623Z,55.00
2019-01-23T12:16:57.866Z,53.90
2019-01-23T12:20:03.439Z,54.00
2019-01-23T12:23:39.899Z,53.70
2019-01-23T12:26:59.886Z,53.30
2019-01-23T12:42:48.484Z,53.80
2019-01-23T12:55:25.220Z,53.60
2019-01-23T12:58:20.526Z,53.60
2019-01-23T13:01:16.174Z,53.30
2019-01-23T13:07:38.012Z,53.20
2019-01-23T13:14:14.946Z,52.70
2019-01-23T13:31:38.072Z,52.40
2019-01-23T13:34:32.957Z,52.20
2019-01-23T13:37:46.162Z,52.20
2019-01-23T13:47:06.629Z,52.20
